Time;durP1;ratioP1;P1;durP2;ratioP2;P2;SDS_P1;SDS_P2;PMS_P1;PMS_P2;Temp;Humidity;BMP_temperature;BMP_pressure;BME280_temperature;BME280_humidity;BME280_pressure;Samples;Min_cycle;Max_cycle;Signal;HPM_P1;HPM_P2
2021/09/17 00:01:39;;;;;;;6.65;2.60;;;;;;;17.68;94.75;98241.63;5050113;28;20775;-58
2021/09/17 00:04:05;;;;;;;6.28;2.33;;;;;;;17.49;94.53;98214.31;5056050;28;20056;-58
2021/09/17 00:06:30;;;;;;;5.53;2.67;;;;;;;17.65;94.35;98242.03;5059855;28;20040;-58
2021/09/17 00:08:55;;;;;;;5.60;2.35;;;;;;;17.64;94.29;98235.16;5052265;28;20690;-58
2021/09/17 00:11:21;;;;;;;5.97;2.50;;;;;;;17.63;93.61;98232.72;5056262;28;20062;-58
2021/09/17 00:13:46;;;;;;;8.45;2.30;;;;;;;17.63;94.28;98236.19;5062262;28;20656;-58
2021/09/17 00:16:12;;;;;;;5.10;2.50;;;;;;;17.60;94.92;98233.94;5055429;28;20124;-58
2021/09/17 00:18:37;;;;;;;5.95;2.53;;;;;;;17.55;95.37;98232.91;5054617;28;20641;-58
2021/09/17 00:21:03;;;;;;;5.57;2.80;;;;;;;17.47;95.20;98221.59;5057717;28;20501;-58
2021/09/17 00:23:28;;;;;;;7.07;2.70;;;;;;;17.52;95.74;98222.78;5058749;28;20033;-58
2021/09/17 00:25:54;;;;;;;5.65;2.40;;;;;;;17.48;95.81;98225.00;5059316;28;20037;-59
2021/09/17 00:28:19;;;;;;;6.03;2.80;;;;;;;17.48;95.02;98220.56;5042198;28;20136;-58
2021/09/17 00:30:44;;;;;;;9.02;2.70;;;;;;;17.31;94.61;98190.41;5054908;28;20562;-58
2021/09/17 00:33:10;;;;;;;5.78;2.42;;;;;;;17.26;94.49;98169.97;5063344;28;20032;-58
2021/09/17 00:35:35;;;;;;;5.55;2.55;;;;;;;17.41;94.18;98188.22;5054267;28;20523;-58
2021/09/17 00:38:03;;;;;;;5.95;2.58;;;;;;;17.56;94.63;98219.59;5059791;28;20025;-58
2021/09/17 00:40:29;;;;;;;4.93;2.40;;;;;;;17.51;94.89;98203.59;5056769;28;20024;-58
2021/09/17 00:42:54;;;;;;;9.40;2.65;;;;;;;17.25;95.43;98168.38;5054372;28;20938;-58
2021/09/17 00:45:19;;;;;;;5.63;2.30;;;;;;;17.32;95.68;98181.50;5049512;28;20593;-58
2021/09/17 00:47:45;;;;;;;5.63;2.30;;;;;;;17.47;95.89;98197.94;5054031;28;20492;-58
2021/09/17 00:50:16;;;;;;;5.97;2.40;;;;;;;17.49;94.98;98203.78;5055356;28;20058;-58
2021/09/17 00:52:42;;;;;;;6.03;2.20;;;;;;;17.48;94.88;98196.91;5051664;28;20020;-58
2021/09/17 00:55:08;;;;;;;6.00;2.13;;;;;;;17.24;94.79;98163.31;5036253;28;20104;-58
2021/09/17 00:57:34;;;;;;;5.45;2.50;;;;;;;17.21;95.57;98174.19;5042680;28;20132;-58
2021/09/17 00:59:59;;;;;;;4.90;2.40;;;;;;;17.37;96.04;98188.81;5057180;28;20540;-58
2021/09/17 01:02:25;;;;;;;5.35;2.42;;;;;;;17.48;95.54;98199.53;5053449;28;20028;-58
2021/09/17 01:04:50;;;;;;;5.35;2.05;;;;;;;17.39;95.50;98186.78;5057461;28;21964;-59
2021/09/17 01:07:15;;;;;;;6.00;2.33;;;;;;;17.33;95.55;98182.34;5056872;28;20041;-58
2021/09/17 01:09:41;;;;;;;6.75;2.63;;;;;;;17.35;96.30;98202.13;5040810;28;20088;-58
2021/09/17 01:12:07;;;;;;;5.30;2.65;;;;;;;17.16;96.18;98150.34;5044231;28;20407;-58
2021/09/17 01:14:34;;;;;;;4.65;2.45;;;;;;;17.41;95.82;98190.00;5061623;28;20501;-58
2021/09/17 01:17:01;;;;;;;7.57;2.33;;;;;;;17.26;95.79;98156.03;5058924;28;20159;-58
2021/09/17 01:19:26;;;;;;;5.63;2.47;;;;;;;17.19;95.80;98145.50;5058189;28;20025;-58
2021/09/17 01:21:59;;;;;;;10.50;2.90;;;;;;;17.38;96.81;98183.34;5059691;28;20043;-58
2021/09/17 01:24:25;;;;;;;5.22;2.35;;;;;;;17.41;96.08;98185.59;5042255;28;20471;-58
2021/09/17 01:26:50;;;;;;;6.05;1.90;;;;;;;17.19;95.70;98137.63;5062265;28;20031;-58
2021/09/17 01:29:16;;;;;;;6.75;2.28;;;;;;;17.44;95.49;98173.84;5050575;28;20347;-58
2021/09/17 01:31:41;;;;;;;6.00;2.10;;;;;;;17.04;94.54;98100.22;5055776;28;20033;-58
2021/09/17 01:34:08;;;;;;;5.10;2.40;;;;;;;17.44;95.22;98164.16;5052648;28;20045;-58
2021/09/17 01:36:33;;;;;;;4.80;2.22;;;;;;;17.45;95.39;98157.91;5057753;28;20489;-58
2021/09/17 01:38:59;;;;;;;5.10;2.40;;;;;;;17.39;95.22;98158.69;5053906;28;20076;-59
2021/09/17 01:41:24;;;;;;;5.32;2.30;;;;;;;17.40;94.92;98162.94;5041722;28;20028;-58
2021/09/17 01:43:49;;;;;;;6.53;2.08;;;;;;;17.41;94.93;98161.09;5056303;28;20310;-58
2021/09/17 01:46:15;;;;;;;5.47;2.13;;;;;;;16.90;94.62;98079.19;5051721;28;20029;-58
2021/09/17 01:48:40;;;;;;;6.05;2.10;;;;;;;17.33;95.42;98140.28;5060492;28;20033;-58
2021/09/17 01:51:05;;;;;;;6.13;2.58;;;;;;;17.37;94.70;98139.69;5053622;28;20306;-58
2021/09/17 01:53:34;;;;;;;6.95;2.15;;;;;;;17.36;94.46;98147.75;5055201;28;20682;-58
2021/09/17 01:55:59;;;;;;;5.82;2.05;;;;;;;17.35;95.15;98154.84;5056481;28;20105;-58
2021/09/17 01:58:25;;;;;;;6.55;2.33;;;;;;;17.12;94.75;98112.34;5034245;28;20024;-58
2021/09/17 02:00:50;;;;;;;5.22;2.20;;;;;;;17.40;94.19;98144.53;5059436;28;20040;-58
2021/09/17 02:03:15;;;;;;;5.28;2.22;;;;;;;17.40;94.34;98144.53;5053122;28;20032;-58
2021/09/17 02:05:41;;;;;;;6.47;2.00;;;;;;;17.38;93.05;98122.91;5060197;28;20433;-58
2021/09/17 02:08:06;;;;;;;5.45;1.85;;;;;;;17.10;93.54;98088.91;5051779;28;20040;-58
2021/09/17 02:10:32;;;;;;;7.22;2.38;;;;;;;17.36;93.70;98137.25;5058021;28;20059;-57
2021/09/17 02:12:57;;;;;;;6.47;2.20;;;;;;;17.35;93.86;98136.44;5060766;28;20039;-58
2021/09/17 02:15:23;;;;;;;5.78;2.17;;;;;;;17.30;93.88;98133.59;5059864;28;20032;-58
2021/09/17 02:17:48;;;;;;;5.50;2.28;;;;;;;17.23;93.74;98123.09;5033030;28;20025;-58
2021/09/17 02:20:13;;;;;;;4.50;2.25;;;;;;;17.23;93.73;98127.53;5046249;28;20467;-58
2021/09/17 02:22:39;;;;;;;4.65;2.20;;;;;;;17.06;93.48;98092.94;5058719;28;20028;-58
2021/09/17 02:25:05;;;;;;;6.75;2.05;;;;;;;16.97;93.53;98081.81;5032598;28;20466;-58
2021/09/17 02:27:31;;;;;;;6.15;2.10;;;;;;;17.23;93.83;98132.78;5048742;28;20033;-58
2021/09/17 02:29:56;;;;;;;6.03;2.13;;;;;;;17.20;93.85;98126.13;5037016;28;20052;-58
2021/09/17 02:32:21;;;;;;;5.57;2.30;;;;;;;17.17;94.19;98115.19;5031881;28;20029;-58
2021/09/17 02:34:47;;;;;;;5.57;1.77;;;;;;;17.18;93.27;98122.88;5036574;28;20467;-58
2021/09/17 02:37:13;;;;;;;4.40;2.05;;;;;;;17.17;93.83;98123.06;5030383;28;20041;-58
2021/09/17 02:39:38;;;;;;;4.57;2.28;;;;;;;17.06;94.83;98119.22;5052799;28;20799;-58
2021/09/17 02:42:04;;;;;;;5.05;2.50;;;;;;;16.88;94.37;98099.56;5059864;28;20089;-58
2021/09/17 02:44:30;;;;;;;9.88;2.03;;;;;;;17.00;94.53;98106.88;5059878;28;20035;-58
2021/09/17 02:46:55;;;;;;;5.07;1.77;;;;;;;17.00;95.09;98112.94;5060399;28;20036;-58
2021/09/17 02:49:21;;;;;;;4.28;1.70;;;;;;;17.05;94.65;98112.34;5063695;28;20151;-58
2021/09/17 02:51:47;;;;;;;7.97;2.45;;;;;;;16.98;95.12;98112.31;5061806;28;20035;-58
2021/09/17 02:54:12;;;;;;;7.63;1.80;;;;;;;16.80;93.91;98065.59;5059079;28;20036;-58
2021/09/17 02:56:37;;;;;;;5.63;2.00;;;;;;;16.97;94.44;98105.44;5056575;28;20640;-58
2021/09/17 02:59:03;;;;;;;5.25;1.90;;;;;;;17.05;94.21;98104.47;5055732;28;20024;-58
2021/09/17 03:01:28;;;;;;;4.65;2.25;;;;;;;16.98;94.12;98093.94;5058474;28;20095;-58
2021/09/17 03:03:54;;;;;;;5.28;2.17;;;;;;;17.05;94.33;98093.97;5055090;28;20111;-58
2021/09/17 03:06:22;;;;;;;6.22;2.25;;;;;;;17.00;93.21;98097.16;5057755;28;20561;-58
2021/09/17 03:08:48;;;;;;;4.35;1.77;;;;;;;16.96;93.94;98093.34;5054333;28;20052;-58
2021/09/17 03:11:13;;;;;;;5.30;1.70;;;;;;;16.91;93.24;98095.75;5048565;28;20017;-58
2021/09/17 03:13:39;;;;;;;5.13;1.95;;;;;;;16.95;93.34;98089.06;5060421;28;20033;-58
2021/09/17 03:16:05;;;;;;;4.22;1.80;;;;;;;16.86;93.61;98093.69;5057212;28;20020;-58
2021/09/17 03:18:32;;;;;;;5.93;2.03;;;;;;;16.83;92.86;98075.72;5059352;28;20852;-58
2021/09/17 03:20:57;;;;;;;5.20;1.73;;;;;;;16.88;93.26;98096.13;5060301;28;20056;-58
2021/09/17 03:23:22;;;;;;;5.75;2.50;;;;;;;16.80;93.06;98083.97;5058073;28;20443;-58
2021/09/17 03:25:48;;;;;;;5.40;2.00;;;;;;;16.84;93.24;98092.28;5061957;28;20028;-58
2021/09/17 03:28:13;;;;;;;5.75;1.90;;;;;;;16.85;92.71;98093.91;5061313;28;20471;-58
2021/09/17 03:30:38;;;;;;;4.10;1.73;;;;;;;16.82;93.22;98084.56;5063508;28;20043;-58
2021/09/17 03:33:04;;;;;;;5.38;1.90;;;;;;;16.56;93.18;98043.31;5054422;28;20032;-58
2021/09/17 03:35:30;;;;;;;5.80;2.03;;;;;;;16.74;94.14;98079.50;5052335;28;20141;-58
2021/09/17 03:37:55;;;;;;;4.65;1.90;;;;;;;16.78;94.02;98079.91;5046158;28;20060;-58
2021/09/17 03:40:21;;;;;;;6.95;1.85;;;;;;;16.78;93.76;98088.59;5051467;28;20032;-58
2021/09/17 03:42:46;;;;;;;4.03;1.73;;;;;;;16.70;93.31;98065.13;5064480;28;20069;-58
2021/09/17 03:45:11;;;;;;;4.68;1.67;;;;;;;16.72;93.86;98074.44;5053401;28;20534;-58
2021/09/17 03:47:37;;;;;;;6.05;1.65;;;;;;;16.68;94.01;98081.09;5061868;28;20054;-58
2021/09/17 03:50:05;;;;;;;4.95;1.60;;;;;;;16.72;93.35;98071.03;5041238;28;20478;-58
2021/09/17 03:52:30;;;;;;;5.75;1.70;;;;;;;16.55;92.55;98036.44;5058563;28;20033;-58
2021/09/17 03:54:55;;;;;;;4.28;1.58;;;;;;;16.72;92.18;98061.31;5059686;28;20471;-58
2021/09/17 03:57:21;;;;;;;4.90;1.85;;;;;;;16.75;93.15;98067.97;5057233;28;20060;-58
2021/09/17 03:59:46;;;;;;;6.22;1.58;;;;;;;16.78;92.06;98074.66;5058306;28;20131;-58
2021/09/17 04:02:12;;;;;;;3.80;1.55;;;;;;;16.82;91.45;98076.69;5042284;28;20065;-58
2021/09/17 04:04:39;;;;;;;4.93;1.60;;;;;;;16.80;91.84;98064.78;5038940;28;20034;-58
2021/09/17 04:07:05;;;;;;;4.25;1.45;;;;;;;16.52;91.71;98039.47;5053094;28;20028;-59
2021/09/17 04:09:30;;;;;;;5.18;1.90;;;;;;;16.84;90.85;98077.31;5041924;28;20377;-58
2021/09/17 04:11:56;;;;;;;4.38;1.60;;;;;;;16.79;91.62;98073.66;5052867;28;20040;-58
2021/09/17 04:14:21;;;;;;;3.92;1.58;;;;;;;16.79;91.22;98081.53;5054968;28;20083;-58
2021/09/17 04:16:47;;;;;;;5.03;1.65;;;;;;;16.76;91.58;98072.25;5058407;28;20124;-58
2021/09/17 04:19:12;;;;;;;5.47;1.60;;;;;;;16.77;91.04;98065.16;5050468;28;20036;-58
2021/09/17 04:21:38;;;;;;;4.82;1.48;;;;;;;16.83;91.18;98065.22;5061286;28;21783;-58
2021/09/17 04:24:04;;;;;;;4.43;1.52;;;;;;;16.72;90.92;98034.28;5052496;28;20394;-58
2021/09/17 04:26:29;;;;;;;5.15;1.75;;;;;;;16.76;91.80;98060.94;5058820;28;20483;-58
2021/09/17 04:28:54;;;;;;;7.60;1.80;;;;;;;16.43;91.62;98020.44;5055375;28;20493;-58
2021/09/17 04:31:20;;;;;;;5.40;2.08;;;;;;;16.66;92.04;98059.47;5049262;28;20029;-58
2021/09/17 04:33:45;;;;;;;4.78;1.60;;;;;;;16.70;91.75;98063.34;5058612;28;20143;-58
2021/09/17 04:36:10;;;;;;;5.50;1.48;;;;;;;16.44;91.28;98016.81;5041240;28;20037;-57
2021/09/17 04:38:36;;;;;;;5.43;1.60;;;;;;;16.67;90.96;98058.47;5053265;28;20032;-58
2021/09/17 04:41:01;;;;;;;3.85;1.42;;;;;;;16.45;91.11;98025.50;5047812;28;20033;-58
2021/09/17 04:43:27;;;;;;;5.55;1.73;;;;;;;16.73;90.77;98056.88;5055721;28;20106;-58
2021/09/17 04:45:53;;;;;;;6.05;1.55;;;;;;;16.67;91.03;98068.16;5054815;28;20048;-58
2021/09/17 04:48:18;;;;;;;5.13;1.40;;;;;;;16.68;90.44;98060.09;5038958;28;20020;-58
2021/09/17 04:50:44;;;;;;;3.90;1.50;;;;;;;16.70;90.62;98065.97;5054437;28;20150;-58
2021/09/17 04:53:10;;;;;;;4.68;1.50;;;;;;;16.57;91.18;98052.78;5058295;28;20038;-58
2021/09/17 04:55:36;;;;;;;7.60;1.80;;;;;;;16.56;91.91;98059.06;5057823;28;20078;-58
2021/09/17 04:58:06;;;;;;;5.38;1.50;;;;;;;16.54;92.03;98058.44;5056591;28;20032;-58
2021/09/17 05:00:32;;;;;;;4.97;1.80;;;;;;;16.55;92.41;98065.28;5060562;28;20040;-58
2021/09/17 05:02:58;;;;;;;4.13;1.98;;;;;;;16.50;92.86;98065.06;5058393;28;20025;-58
2021/09/17 05:05:24;;;;;;;4.40;1.65;;;;;;;16.50;92.84;98068.53;5051240;28;20029;-58
2021/09/17 05:07:49;;;;;;;5.93;1.98;;;;;;;16.45;92.84;98060.41;5057159;28;20028;-58
2021/09/17 05:10:15;;;;;;;5.07;1.70;;;;;;;16.49;93.28;98066.09;5034775;28;20025;-58
2021/09/17 05:12:40;;;;;;;4.75;1.73;;;;;;;16.45;93.40;98070.91;5047235;28;20416;-58
2021/09/17 05:15:06;;;;;;;5.95;1.70;;;;;;;16.37;93.56;98057.94;5051245;28;20024;-58
2021/09/17 05:17:32;;;;;;;4.43;1.80;;;;;;;16.19;93.25;98027.03;5052904;28;20040;-58
2021/09/17 05:19:57;;;;;;;4.15;1.80;;;;;;;16.47;92.97;98062.84;5052423;28;20548;-57
2021/09/17 05:22:25;;;;;;;5.07;1.70;;;;;;;16.44;93.08;98068.47;5056398;28;20479;-58
2021/09/17 05:24:50;;;;;;;4.80;1.85;;;;;;;16.43;93.18;98074.75;5044458;28;20058;-58
2021/09/17 05:27:16;;;;;;;4.90;1.80;;;;;;;16.46;92.85;98075.13;5051894;28;20446;-56
2021/09/17 05:29:41;;;;;;;3.83;1.60;;;;;;;16.48;93.13;98061.81;5054253;28;20176;-58
2021/09/17 05:32:07;;;;;;;5.45;1.98;;;;;;;16.49;93.40;98077.38;5050584;28;20090;-58
2021/09/17 05:34:33;;;;;;;8.02;1.90;;;;;;;16.45;93.32;98076.16;5044672;28;20490;-60
2021/09/17 05:36:58;;;;;;;6.00;1.60;;;;;;;16.48;93.08;98081.03;5054126;28;20825;-58
2021/09/17 05:39:24;;;;;;;4.85;1.50;;;;;;;16.42;93.55;98079.16;5052691;28;20033;-58
2021/09/17 05:41:50;;;;;;;4.55;1.60;;;;;;;16.45;93.52;98086.66;5048746;28;20033;-58
2021/09/17 05:44:15;;;;;;;5.70;1.80;;;;;;;16.17;93.40;98046.56;5051026;28;20478;-58
2021/09/17 05:46:40;;;;;;;5.35;1.63;;;;;;;16.46;92.83;98080.38;5027599;28;20028;-58
2021/09/17 05:49:06;;;;;;;7.07;2.20;;;;;;;16.45;92.87;98083.22;5058718;28;20111;-58
2021/09/17 05:51:31;;;;;;;7.85;2.05;;;;;;;16.43;92.96;98077.38;5060902;28;20035;-58
2021/09/17 05:53:57;;;;;;;4.15;1.67;;;;;;;16.42;92.79;98075.75;5057411;28;20025;-58
2021/09/17 05:56:22;;;;;;;5.15;1.63;;;;;;;16.44;93.21;98084.22;5057197;28;20119;-58
2021/09/17 05:58:47;;;;;;;8.43;1.70;;;;;;;16.21;93.30;98046.00;5050646;28;20043;-58
2021/09/17 06:01:13;;;;;;;4.78;1.90;;;;;;;16.34;93.26;98076.72;5055549;28;20024;-58
2021/09/17 06:03:41;;;;;;;6.57;2.30;;;;;;;16.18;93.19;98048.19;5056337;28;20136;-58
2021/09/17 06:06:06;;;;;;;6.05;1.75;;;;;;;16.37;93.14;98081.56;5045956;28;20032;-58
2021/09/17 06:08:32;;;;;;;5.75;1.77;;;;;;;16.42;92.92;98083.63;5041988;28;20050;-58
2021/09/17 06:10:57;;;;;;;4.90;1.90;;;;;;;16.18;93.42;98041.13;5059989;28;20036;-59
2021/09/17 06:13:22;;;;;;;5.22;1.90;;;;;;;16.36;92.91;98077.34;5062050;28;20078;-58
2021/09/17 06:15:48;;;;;;;3.88;1.50;;;;;;;16.40;92.19;98072.50;5052459;28;20025;-58
2021/09/17 06:18:14;;;;;;;5.22;1.60;;;;;;;16.36;92.36;98076.53;5061523;28;20024;-58
2021/09/17 06:20:39;;;;;;;5.30;1.50;;;;;;;16.39;91.84;98074.31;5054739;28;20024;-58
2021/09/17 06:23:04;;;;;;;5.75;1.60;;;;;;;16.39;92.13;98078.75;5051162;28;20036;-58
2021/09/17 06:25:30;;;;;;;3.60;1.50;;;;;;;16.34;91.63;98074.09;5058443;28;20471;-58
2021/09/17 06:27:55;;;;;;;6.90;1.92;;;;;;;16.41;91.44;98074.09;5037799;28;20166;-58
2021/09/17 06:30:21;;;;;;;4.60;1.88;;;;;;;16.41;91.39;98079.34;5039763;28;20040;-58
2021/09/17 06:32:47;;;;;;;3.63;1.42;;;;;;;16.40;91.29;98081.19;5036616;28;20123;-58
2021/09/17 06:35:13;;;;;;;4.10;1.40;;;;;;;16.38;91.05;98072.69;5054764;28;20077;-58
2021/09/17 06:37:51;;;;;;;3.83;1.30;;;;;;;16.19;91.15;98042.75;5035947;28;20024;-58
2021/09/17 06:40:17;;;;;;;4.22;1.45;;;;;;;16.39;91.25;98076.13;5060314;28;20565;-58
2021/09/17 06:42:43;;;;;;;6.70;1.65;;;;;;;16.36;91.59;98081.78;5061744;28;20173;-58
2021/09/17 06:45:08;;;;;;;4.60;1.85;;;;;;;16.42;91.82;98075.75;5055139;28;20016;-58
2021/09/17 06:47:44;;;;;;;4.55;1.80;;;;;;;16.33;92.03;98072.47;5061173;28;20099;-58
2021/09/17 06:50:10;;;;;;;5.00;2.13;;;;;;;16.32;92.63;98076.91;5055491;28;20529;-58
2021/09/17 06:52:36;;;;;;;4.60;1.90;;;;;;;16.31;92.38;98080.53;5055523;28;20029;-58
2021/09/17 06:55:01;;;;;;;4.30;1.80;;;;;;;16.32;91.89;98084.78;5042670;28;20035;-58
2021/09/17 06:57:26;;;;;;;3.60;1.60;;;;;;;16.28;92.60;98077.47;5055339;28;20028;-58
2021/09/17 06:59:52;;;;;;;16.55;3.00;;;;;;;16.11;92.01;98045.53;5058466;28;20037;-58
2021/09/17 07:02:17;;;;;;;5.15;1.60;;;;;;;16.39;91.13;98082.19;5059731;28;20031;-58
2021/09/17 07:04:42;;;;;;;4.35;1.33;;;;;;;16.35;90.83;98073.06;5037177;28;20035;-58
2021/09/17 07:07:08;;;;;;;7.22;1.98;;;;;;;16.41;91.04;98082.81;5052362;28;20110;-58
2021/09/17 07:09:33;;;;;;;6.50;1.90;;;;;;;16.40;90.82;98070.69;5053541;28;20032;-58
2021/09/17 07:11:58;;;;;;;5.40;1.80;;;;;;;16.21;91.35;98043.38;5051601;28;20064;-58
2021/09/17 07:14:24;;;;;;;6.22;2.00;;;;;;;16.20;91.27;98043.56;5056259;28;20033;-58
2021/09/17 07:16:49;;;;;;;5.03;1.50;;;;;;;16.37;90.75;98063.19;5050362;28;20423;-58
2021/09/17 07:19:15;;;;;;;4.30;1.65;;;;;;;16.49;91.56;98085.25;5039111;28;20020;-58
2021/09/17 07:21:40;;;;;;;6.45;1.70;;;;;;;16.56;91.60;98089.75;5060218;28;20044;-58
2021/09/17 07:24:06;;;;;;;5.70;1.73;;;;;;;16.52;91.56;98076.19;5054455;28;20803;-59
2021/09/17 07:26:31;;;;;;;5.88;2.00;;;;;;;16.40;91.05;98047.06;5060952;28;20039;-58
2021/09/17 07:28:56;;;;;;;5.00;2.20;;;;;;;16.60;91.78;98083.88;5057930;28;20051;-58
2021/09/17 07:31:22;;;;;;;4.30;1.67;;;;;;;16.64;92.21;98081.69;5062772;28;20040;-58
2021/09/17 07:33:47;;;;;;;6.20;1.70;;;;;;;16.69;91.92;98087.16;5056055;28;20157;-58
2021/09/17 07:36:13;;;;;;;5.22;1.60;;;;;;;16.62;91.41;98067.94;5066878;28;20039;-58
2021/09/17 07:38:38;;;;;;;4.55;1.40;;;;;;;16.64;91.07;98079.84;5061075;28;20029;-58
2021/09/17 07:41:04;;;;;;;4.22;1.20;;;;;;;16.70;91.25;98089.59;5053914;28;20029;-58
2021/09/17 07:43:29;;;;;;;5.45;1.45;;;;;;;16.73;91.13;98083.94;5062226;28;20032;-58
2021/09/17 07:45:55;;;;;;;5.07;1.58;;;;;;;16.59;91.17;98052.59;5061066;28;20450;-58
2021/09/17 07:48:20;;;;;;;5.85;1.30;;;;;;;16.77;91.54;98078.28;5064245;28;20055;-58
2021/09/17 07:50:46;;;;;;;4.75;1.33;;;;;;;16.59;91.07;98056.03;5042296;28;20033;-58
2021/09/17 07:53:12;;;;;;;3.70;1.48;;;;;;;16.80;90.65;98094.47;5064663;28;20132;-58
2021/09/17 07:55:37;;;;;;;3.20;1.20;;;;;;;16.85;90.18;98097.34;5062857;28;20032;-58
2021/09/17 07:58:04;;;;;;;4.25;1.38;;;;;;;16.86;91.53;98098.13;5062432;28;20329;-58
2021/09/17 08:00:29;;;;;;;4.68;1.48;;;;;;;16.67;91.07;98062.94;5065372;28;20028;-58
2021/09/17 08:02:55;;;;;;;4.20;1.40;;;;;;;16.79;90.96;98092.81;5040065;28;20028;-59
2021/09/17 08:05:20;;;;;;;7.25;1.48;;;;;;;16.84;89.88;98098.34;5064187;28;20212;-58
2021/09/17 08:07:46;;;;;;;6.40;1.50;;;;;;;16.86;90.01;98101.56;5057010;28;20048;-58
2021/09/17 08:10:11;;;;;;;7.22;2.00;;;;;;;16.87;90.78;98103.19;5060529;28;20120;-58
2021/09/17 08:12:37;;;;;;;7.55;1.70;;;;;;;16.90;90.91;98101.97;5055925;28;20052;-59
2021/09/17 08:15:04;;;;;;;6.20;1.40;;;;;;;16.91;90.05;98107.03;5041792;28;20025;-58
2021/09/17 08:17:30;;;;;;;4.25;1.50;;;;;;;16.89;91.34;98103.81;5059307;28;20031;-58
2021/09/17 08:19:55;;;;;;;4.72;1.23;;;;;;;16.70;90.40;98091.38;5053113;28;20045;-58
2021/09/17 08:22:21;;;;;;;3.83;1.33;;;;;;;16.78;90.54;98098.31;5053841;28;20024;-59
2021/09/17 08:24:46;;;;;;;4.10;1.42;;;;;;;16.85;91.40;98096.53;5048892;28;20037;-58
2021/09/17 08:27:11;;;;;;;4.63;1.50;;;;;;;16.90;91.24;98107.22;5062654;28;20111;-58
2021/09/17 08:29:37;;;;;;;3.40;1.20;;;;;;;16.95;91.19;98107.47;5057768;28;20033;-58
2021/09/17 08:32:03;;;;;;;4.13;1.33;;;;;;;16.95;92.49;98096.94;5062472;28;20044;-58
2021/09/17 08:34:28;;;;;;;5.45;1.23;;;;;;;16.93;91.74;98096.34;5062047;28;20028;-58
2021/09/17 08:36:54;;;;;;;3.08;1.10;;;;;;;16.98;89.82;98101.00;5062217;28;20021;-58
2021/09/17 08:39:19;;;;;;;3.10;1.02;;;;;;;16.97;91.56;98108.06;5058241;28;20455;-58
2021/09/17 08:41:45;;;;;;;4.63;1.48;;;;;;;16.88;89.95;98115.34;5059683;28;20633;-58
2021/09/17 08:44:12;;;;;;;4.30;1.13;;;;;;;16.90;89.56;98118.56;5053903;28;20033;-58
2021/09/17 08:46:42;;;;;;;8.82;1.45;;;;;;;16.92;89.41;98113.13;5041783;28;20115;-58
2021/09/17 08:49:08;;;;;;;4.63;1.10;;;;;;;16.78;90.67;98079.91;5056963;28;20561;-58
2021/09/17 08:51:34;;;;;;;6.38;1.35;;;;;;;16.95;90.12;98119.78;5043571;28;20854;-58
2021/09/17 08:54:02;;;;;;;3.85;1.38;;;;;;;16.69;90.13;98074.84;5045196;28;20051;-58
2021/09/17 08:56:28;;;;;;;4.72;1.50;;;;;;;16.97;88.75;98104.63;5058970;28;20124;-58
2021/09/17 08:58:54;;;;;;;6.88;1.50;;;;;;;17.03;88.55;98104.66;5036181;28;20037;-58
2021/09/17 09:01:29;;;;;;;4.43;1.27;;;;;;;17.12;87.52;98100.00;5054115;28;20380;-59
2021/09/17 09:03:59;;;;;;;4.50;1.13;;;;;;;17.25;87.48;98096.63;5055932;28;20040;-58
2021/09/17 09:06:25;;;;;;;3.05;1.23;;;;;;;17.48;87.78;98098.84;5061958;28;20020;-58
2021/09/17 09:08:52;;;;;;;4.18;1.30;;;;;;;17.62;86.29;98086.53;5037075;28;20045;-58
2021/09/17 09:11:20;;;;;;;3.55;1.20;;;;;;;17.73;87.04;98096.44;5031942;28;20029;-58
2021/09/17 09:14:00;;;;;;;6.13;1.42;;;;;;;17.82;87.28;98089.16;5057826;28;20028;-58
2021/09/17 09:16:25;;;;;;;4.95;1.27;;;;;;;17.81;85.49;98084.91;5040101;28;20024;-58
2021/09/17 09:18:51;;;;;;;5.30;1.30;;;;;;;17.91;86.12;98090.59;5057969;28;20039;-58
2021/09/17 09:21:30;;;;;;;4.15;0.90;;;;;;;17.98;85.11;98090.56;5057691;28;20398;-58
2021/09/17 09:24:15;;;;;;;;;;;;;;;18.02;84.40;98089.97;5044345;28;20029;-58
2021/09/17 09:26:40;;;;;;;3.92;0.90;;;;;;;18.16;83.37;98089.91;5059735;28;19975;-58
2021/09/17 09:29:24;;;;;;;4.45;1.08;;;;;;;18.16;82.81;98085.50;5050867;28;20686;-58
2021/09/17 09:31:50;;;;;;;3.40;0.93;;;;;;;18.31;81.31;98098.41;5056805;28;20043;-58
2021/09/17 09:34:15;;;;;;;3.58;1.00;;;;;;;18.34;81.20;98089.28;5037756;28;20025;-58
2021/09/17 09:36:41;;;;;;;4.07;1.13;;;;;;;18.50;81.88;98094.06;5055604;28;20462;-58
2021/09/17 09:39:06;;;;;;;7.75;1.30;;;;;;;18.56;80.84;98098.53;5052458;28;20020;-58
2021/09/17 09:41:35;;;;;;;4.72;1.30;;;;;;;18.42;79.67;98066.16;5055976;28;20129;-58
2021/09/17 09:44:21;;;;;;;5.07;1.27;;;;;;;18.67;79.93;98086.50;5051404;28;20035;-58
2021/09/17 09:46:46;;;;;;;3.90;1.10;;;;;;;18.58;80.05;98067.53;5062249;28;20786;-58
2021/09/17 09:49:29;;;;;;;3.47;1.00;;;;;;;18.81;79.86;98084.66;5054039;28;20059;-58
2021/09/17 09:52:01;;;;;;;3.30;1.00;;;;;;;18.92;77.96;98070.81;5054057;28;20028;-59
2021/09/17 09:54:29;;;;;;;3.97;1.00;;;;;;;18.92;76.97;98036.56;5057657;28;20054;-57
2021/09/17 09:56:55;;;;;;;3.35;1.00;;;;;;;19.33;78.18;98077.47;5059230;28;20041;-58
2021/09/17 09:59:24;;;;;;;1.95;0.80;;;;;;;19.27;75.63;98065.13;5054949;28;20039;-58
2021/09/17 10:01:49;;;;;;;3.60;0.90;;;;;;;19.43;75.29;98073.53;5054433;28;20032;-58
2021/09/17 10:04:16;;;;;;;3.30;0.88;;;;;;;19.48;74.46;98077.13;5054475;28;20390;-58
2021/09/17 10:06:42;;;;;;;2.95;0.88;;;;;;;19.66;74.34;98059.72;5057013;28;20020;-58
2021/09/17 10:09:10;;;;;;;3.17;0.75;;;;;;;19.69;75.49;98056.66;5037302;28;20036;-58
2021/09/17 10:11:37;;;;;;;3.63;1.15;;;;;;;19.78;73.94;98058.84;5042288;28;20017;-58
2021/09/17 10:14:04;;;;;;;3.13;0.90;;;;;;;19.82;75.06;98059.22;5050376;28;20025;-58
2021/09/17 10:16:31;;;;;;;3.10;1.00;;;;;;;19.92;74.50;98059.53;5051539;28;20040;-58
2021/09/17 10:18:57;;;;;;;3.60;1.00;;;;;;;19.68;76.01;98026.06;5050698;28;20107;-58
2021/09/17 10:21:49;;;;;;;2.55;0.90;;;;;;;19.85;76.22;98050.88;5048465;28;20033;-58
2021/09/17 10:24:26;;;;;;;5.03;1.30;;;;;;;20.15;75.06;98045.69;5036648;28;20048;-59
2021/09/17 10:26:59;;;;;;;3.58;1.40;;;;;;;20.44;75.21;98042.50;5049743;28;20067;-58
2021/09/17 10:29:38;;;;;;;5.25;1.63;;;;;;;20.49;76.03;98037.38;5052111;28;20591;-59
2021/09/17 10:32:27;;;;;;;3.45;1.00;;;;;;;20.67;74.37;98044.50;5050458;28;20035;-59
2021/09/17 10:35:12;;;;;;;3.97;1.17;;;;;;;20.68;74.12;98041.63;5040228;28;20056;-59
2021/09/17 10:38:02;;;;;;;3.47;1.05;;;;;;;20.51;73.56;98036.09;5039315;28;20033;-59
2021/09/17 10:40:37;;;;;;;4.47;1.23;;;;;;;20.53;74.31;98042.00;5051235;28;20036;-58
2021/09/17 10:43:09;;;;;;;5.93;1.27;;;;;;;20.58;73.69;98045.78;5052349;28;20127;-60
2021/09/17 10:45:38;;;;;;;3.95;1.20;;;;;;;20.56;73.49;98027.53;5052518;28;20024;-59
2021/09/17 10:48:04;;;;;;;5.97;1.27;;;;;;;20.67;73.38;98041.84;5050441;28;20498;-58
2021/09/17 10:50:38;;;;;;;4.78;1.40;;;;;;;20.64;74.21;98005.31;5051243;28;20038;-59
2021/09/17 10:53:04;;;;;;;4.85;1.40;;;;;;;20.86;73.56;98040.78;5049259;28;20498;-58
2021/09/17 10:55:44;;;;;;;3.60;1.30;;;;;;;20.95;73.91;98043.09;5058889;28;20021;-58
2021/09/17 10:58:26;;;;;;;4.60;1.60;;;;;;;20.81;74.27;98014.22;5056981;28;20036;-58
2021/09/17 11:01:01;;;;;;;5.40;1.60;;;;;;;21.11;74.57;98037.94;5046743;28;20025;-58
2021/09/17 11:03:36;;;;;;;3.83;1.30;;;;;;;20.96;74.00;98011.16;5057643;28;20152;-58
2021/09/17 11:08:54;;;;;;;3.85;1.30;;;;;;;21.15;73.23;98038.31;5057772;28;20037;-59
2021/09/17 11:11:27;;;;;;;4.57;1.45;;;;;;;21.19;72.94;98030.72;5039498;28;20062;-59
2021/09/17 11:13:58;;;;;;;6.13;1.40;;;;;;;21.12;73.59;98007.06;5050838;28;20028;-59
2021/09/17 11:16:25;;;;;;;5.47;1.60;;;;;;;21.31;72.20;98020.97;5056990;28;20043;-58
2021/09/17 11:19:01;;;;;;;3.92;1.63;;;;;;;21.16;72.53;97987.06;5032413;28;20747;-58
2021/09/17 11:21:34;;;;;;;5.60;1.45;;;;;;;21.42;72.84;98017.53;5056942;28;20035;-58
2021/09/17 11:24:00;;;;;;;4.93;1.55;;;;;;;21.43;72.49;98013.03;5047598;28;20102;-58
2021/09/17 11:26:28;;;;;;;4.22;1.35;;;;;;;21.52;71.55;98013.53;5044932;28;20079;-58
2021/09/17 11:29:15;;;;;;;4.75;1.58;;;;;;;21.55;72.52;98003.31;5031219;28;20029;-58
2021/09/17 11:31:45;;;;;;;4.38;1.63;;;;;;;21.57;72.83;97998.59;5037092;28;20388;-58
2021/09/17 11:34:15;;;;;;;5.70;2.05;;;;;;;21.67;71.31;97998.03;5030506;28;20039;-58
2021/09/17 11:36:46;;;;;;;4.90;1.85;;;;;;;21.77;71.71;98006.16;5041895;28;20536;-58